^^
Station Historical Data
 
Daily Summary for October 22, 2014 Units:  English    Metric   Both
« Previous Day
Next Day »
Daily Weekly Monthly Yearly Custom
  Current: High: Low: Average:
Temperature: 69.7 °F 83.7 °F 64.7 °F 73.6 °F
Dew Point: 61.0 °F 70.2 °F 58.6 °F 64 °F
Humidity: 74% 98% 44% 75%
Wind Speed: 3.0mph 8.0mph 0.0mph 1.8mph
Wind Gust: 6.0mph 20.0mph - -
WindNE - - ESE
Pressure: 29.97 in 29.98 in 29.89 in -
Precipitation: 0.01 in      
Historical Graphs
 
 
Tabular Data for October 22, 2014
Time Temperature Dew Point Pressure Wind Wind Speed Wind Gust Humidity Rainfall Rate (Hourly) solar Conditions
00:00 71.1 °F 69.9 °F 29.92 in Calm     96% 0.00 in 0.0 W/m2 CLR
00:10 71.2 °F 70.0 °F 29.93 in Calm     96% 0.00 in 0.0 W/m2 CLR
00:15 71.1 °F 69.9 °F 29.92 in Calm     96% 0.00 in 0.0 W/m2 CLR
00:20 71.0 °F 69.8 °F 29.92 in Calm     96% 0.00 in 0.0 W/m2 CLR
00:25 71.1 °F 70.2 °F 29.92 in Calm   1.0 mph 97% 0.00 in 0.0 W/m2 CLR
00:30 71.1 °F 70.2 °F 29.92 in Calm   1.0 mph 97% 0.00 in 0.0 W/m2 CLR
00:40 71.0 °F 69.8 °F 29.92 in Calm     96% 0.00 in 0.0 W/m2 CLR
00:45 70.7 °F 69.5 °F 29.92 in Calm   2.0 mph 96% 0.00 in 0.0 W/m2 CLR
00:50 70.6 °F 69.4 °F 29.92 in Calm   1.0 mph 96% 0.00 in 0.0 W/m2 CLR
01:00 70.5 °F 69.6 °F 29.92 in Calm     97% 0.00 in 0.0 W/m2 CLR
01:10 70.7 °F 69.8 °F 29.91 in Calm     97% 0.00 in 0.0 W/m2 CLR
01:15 70.7 °F 69.8 °F 29.91 in Calm     97% 0.00 in 0.0 W/m2 CLR
01:20 70.7 °F 69.8 °F 29.91 in Calm     97% 0.00 in 0.0 W/m2 CLR
01:25 70.4 °F 69.5 °F 29.92 in Calm   1.0 mph 97% 0.00 in 0.0 W/m2 CLR
01:30 70.1 °F 68.9 °F 29.92 in Calm     96% 0.00 in 0.0 W/m2 CLR
01:40 70.2 °F 69.3 °F 29.91 in Calm     97% 0.00 in 0.0 W/m2 CLR
01:45 70.5 °F 69.6 °F 29.91 in Calm   1.0 mph 97% 0.00 in 0.0 W/m2 CLR
01:55 70.5 °F 69.6 °F 29.91 in Calm     97% 0.00 in 0.0 W/m2 CLR
02:00 70.4 °F 69.5 °F 29.91 in Calm     97% 0.00 in 0.0 W/m2 CLR
02:10 70.3 °F 69.4 °F 29.91 in Calm   2.0 mph 97% 0.00 in 0.0 W/m2 CLR
02:15 70.2 °F 69.3 °F 29.91 in Calm     97% 0.00 in 0.0 W/m2 CLR
02:20 70.2 °F 69.3 °F 29.91 in Calm     97% 0.00 in 0.0 W/m2 CLR
02:30 70.1 °F 69.2 °F 29.91 in Calm     97% 0.00 in 0.0 W/m2 CLR
02:40 69.8 °F 68.9 °F 29.91 in Calm     97% 0.00 in 0.0 W/m2 CLR
02:45 69.8 °F 68.9 °F 29.91 in Calm     97% 0.00 in 0.0 W/m2 CLR
02:50 69.7 °F 68.8 °F 29.91 in Calm     97% 0.00 in 0.0 W/m2 CLR
03:00 69.5 °F 68.6 °F 29.91 in Calm   1.0 mph 97% 0.00 in 0.0 W/m2 CLR
03:10 69.4 °F 68.5 °F 29.91 in Calm   1.0 mph 97% 0.00 in 0.0 W/m2
03:15 69.3 °F 68.4 °F 29.90 in Calm   1.0 mph 97% 0.00 in 0.0 W/m2
03:20 69.2 °F 68.3 °F 29.90 in Calm   1.0 mph 97% 0.00 in 0.0 W/m2
03:25 69.2 °F 68.3 °F 29.90 in Calm     97% 0.00 in 0.0 W/m2
03:30 69.2 °F 68.3 °F 29.90 in Calm     97% 0.00 in 0.0 W/m2
03:40 68.8 °F 67.9 °F 29.90 in Calm     97% 0.00 in 0.0 W/m2
03:45 68.8 °F 67.9 °F 29.90 in Calm   1.0 mph 97% 0.00 in 0.0 W/m2
03:50 68.8 °F 67.9 °F 29.90 in Calm   1.0 mph 97% 0.00 in 0.0 W/m2
03:55 68.7 °F 67.9 °F 29.90 in Calm   1.0 mph 97% 0.00 in 0.0 W/m2
04:00 68.7 °F 67.8 °F 29.90 in Calm   2.0 mph 97% 0.00 in 0.0 W/m2
04:10 68.5 °F 67.6 °F 29.90 in NNW 1.0 mph 2.0 mph 97% 0.00 in 0.0 W/m2
04:15 68.4 °F 67.5 °F 29.90 in Calm   2.0 mph 97% 0.00 in 0.0 W/m2
04:20 68.4 °F 67.5 °F 29.90 in Calm   2.0 mph 97% 0.00 in 0.0 W/m2
04:30 68.3 °F 67.4 °F 29.90 in Calm   2.0 mph 97% 0.00 in 0.0 W/m2
04:40 67.8 °F 66.9 °F 29.90 in NW 1.0 mph 3.0 mph 97% 0.00 in 0.0 W/m2
04:45 67.6 °F 66.7 °F 29.90 in Calm   3.0 mph 97% 0.00 in 0.0 W/m2
04:55 67.4 °F 66.5 °F 29.91 in Calm   1.0 mph 97% 0.00 in 0.0 W/m2
05:00 67.3 °F 66.4 °F 29.90 in Calm   1.0 mph 97% 0.00 in 0.0 W/m2
05:10 66.9 °F 66.0 °F 29.91 in Calm     97% 0.00 in 0.0 W/m2
05:15 66.8 °F 65.9 °F 29.91 in Calm     97% 0.00 in 0.0 W/m2
05:20 66.7 °F 65.8 °F 29.91 in Calm     97% 0.00 in 0.0 W/m2
05:30 66.6 °F 65.7 °F 29.91 in Calm   1.0 mph 97% 0.00 in 0.0 W/m2
05:40 66.6 °F 65.7 °F 29.92 in Calm     97% 0.00 in 0.0 W/m2 SCT
05:45 66.6 °F 65.7 °F 29.92 in Calm     97% 0.00 in 0.0 W/m2 SCT
05:50 66.4 °F 65.5 °F 29.92 in Calm   1.0 mph 97% 0.00 in 0.0 W/m2 SCT
06:00 66.1 °F 65.2 °F 29.92 in Calm     97% 0.00 in 0.0 W/m2 SCT
06:10 65.8 °F 64.9 °F 29.92 in Calm     97% 0.00 in 0.0 W/m2 CLR
06:15 65.9 °F 65.0 °F 29.93 in Calm     97% 0.00 in 0.0 W/m2 CLR
06:20 66.1 °F 65.5 °F 29.93 in Calm     98% 0.00 in 0.0 W/m2 CLR
06:30 65.8 °F 64.9 °F 29.93 in Calm   1.0 mph 97% 0.00 in 0.0 W/m2 CLR
06:40 65.8 °F 64.9 °F 29.93 in Calm   1.0 mph 97% 0.00 in 0.0 W/m2 CLR
06:45 65.8 °F 64.9 °F 29.93 in Calm   1.0 mph 97% 0.00 in 0.0 W/m2 CLR
06:50 65.8 °F 64.9 °F 29.93 in Calm     97% 0.00 in 0.0 W/m2 CLR
06:55 65.6 °F 64.7 °F 29.94 in Calm     97% 0.00 in 0.0 W/m2 CLR
07:00 65.4 °F 64.5 °F 29.93 in Calm     97% 0.00 in 0.0 W/m2 CLR
07:10 65.1 °F 64.2 °F 29.94 in Calm   1.0 mph 97% 0.00 in 0.0 W/m2 CLR
07:15 65.1 °F 64.2 °F 29.94 in Calm   1.0 mph 97% 0.00 in 0.0 W/m2 CLR
07:20 64.9 °F 64.0 °F 29.94 in Calm     97% 0.00 in 0.0 W/m2 CLR
07:30 64.8 °F 63.9 °F 29.94 in Calm     97% 0.00 in 0.0 W/m2 CLR
07:40 65.0 °F 64.1 °F 29.94 in Calm     97% 0.00 in 0.0 W/m2 CLR
07:45 65.0 °F 64.1 °F 29.95 in Calm     97% 0.00 in 0.0 W/m2 CLR
07:50 64.9 °F 64.0 °F 29.94 in Calm     97% 0.00 in 0.0 W/m2 CLR
07:55 64.7 °F 63.8 °F 29.95 in Calm     97% 0.00 in 0.0 W/m2 CLR
08:00 64.7 °F 63.8 °F 29.95 in Calm     97% 0.00 in 0.0 W/m2 CLR
08:10 64.9 °F 64.0 °F 29.95 in Calm     97% 0.00 in 0.0 W/m2 CLR
08:15 65.0 °F 64.1 °F 29.95 in Calm   1.0 mph 97% 0.00 in 0.0 W/m2 CLR
08:20 65.0 °F 64.1 °F 29.95 in Calm   1.0 mph 97% 0.00 in 0.0 W/m2 CLR
08:25 65.1 °F 64.2 °F 29.95 in Calm     97% 0.01 in 0.0 W/m2 RA
08:30 65.3 °F 64.4 °F 29.95 in Calm   1.0 mph 97% 0.00 in 0.0 W/m2 RA
08:40 65.5 °F 64.0 °F 29.96 in North 1.0 mph 3.0 mph 95% 0.00 in 0.0 W/m2 CLR
08:45 66.1 °F 64.3 °F 29.96 in NNW 1.0 mph 2.0 mph 94% 0.00 in 0.0 W/m2 CLR
08:50 66.6 °F 64.2 °F 29.96 in Calm   3.0 mph 92% 0.00 in 0.0 W/m2 CLR
08:55 67.2 °F 64.2 °F 29.96 in North 2.0 mph 3.0 mph 90% 0.00 in 0.0 W/m2 CLR
09:00 67.8 °F 63.8 °F 29.96 in North 2.0 mph 3.0 mph 87% 0.00 in 0.0 W/m2 CLR
09:10 68.9 °F 63.5 °F 29.97 in NNE 1.0 mph 3.0 mph 83% 0.00 in 0.0 W/m2 CLR
09:15 69.4 °F 63.6 °F 29.97 in Calm   3.0 mph 82% 0.00 in 0.0 W/m2 CLR
09:20 69.9 °F 63.4 °F 29.97 in NNW 1.0 mph 2.0 mph 80% 0.00 in 0.0 W/m2 CLR
09:30 71.2 °F 63.6 °F 29.97 in Calm   2.0 mph 77% 0.00 in 0.0 W/m2 CLR
09:40 71.9 °F 63.2 °F 29.97 in North 1.0 mph 4.0 mph 74% 0.00 in 0.0 W/m2 CLR
09:45 72.3 °F 63.6 °F 29.97 in NE 2.0 mph 4.0 mph 74% 0.00 in 0.0 W/m2 CLR
09:50 72.7 °F 63.5 °F 29.97 in NNE 2.0 mph 5.0 mph 73% 0.00 in 0.0 W/m2 CLR
09:55 73.1 °F 63.5 °F 29.97 in North 1.0 mph 3.0 mph 72% 0.00 in 0.0 W/m2 CLR
10:00 73.3 °F 63.3 °F 29.97 in NNW 3.0 mph 7.0 mph 71% 0.00 in 0.0 W/m2 CLR
10:10 74.1 °F 62.8 °F 29.98 in NNE 1.0 mph 3.0 mph 68% 0.00 in 0.0 W/m2 CLR
10:15 74.4 °F 62.7 °F 29.98 in North 1.0 mph 2.0 mph 67% 0.00 in 0.0 W/m2 CLR
10:25 75.0 °F 62.4 °F 29.98 in NNE 2.0 mph 4.0 mph 65% 0.00 in 0.0 W/m2 CLR
10:30 75.2 °F 62.2 °F 29.98 in North 2.0 mph 4.0 mph 64% 0.00 in 0.0 W/m2 CLR
10:40 75.8 °F 61.9 °F 29.98 in NNE 2.0 mph 5.0 mph 62% 0.00 in 0.0 W/m2 CLR
10:45 76.1 °F 61.6 °F 29.98 in North 2.0 mph 6.0 mph 61% 0.00 in 0.0 W/m2 CLR
10:50 76.4 °F 61.5 °F 29.98 in NNW 2.0 mph 5.0 mph 60% 0.00 in 0.0 W/m2 CLR
10:55 76.8 °F 62.3 °F 29.98 in NNW 2.0 mph 5.0 mph 61% 0.00 in 0.0 W/m2 CLR
11:00 77.2 °F 61.7 °F 29.98 in NNE 2.0 mph 4.0 mph 59% 0.00 in 0.0 W/m2 CLR
11:10 77.5 °F 62.0 °F 29.98 in NE 3.0 mph 7.0 mph 59% 0.00 in 0.0 W/m2 CLR
11:15 77.7 °F 61.3 °F 29.98 in ENE 3.0 mph 8.0 mph 57% 0.00 in 0.0 W/m2 CLR
11:20 77.9 °F 61.4 °F 29.98 in NE 3.0 mph 6.0 mph 57% 0.00 in 0.0 W/m2 CLR
11:25 78.2 °F 60.7 °F 29.98 in NNE 2.0 mph 5.0 mph 55% 0.00 in 0.0 W/m2 CLR
11:30 78.5 °F 61.0 °F 29.98 in NE 1.0 mph 5.0 mph 55% 0.00 in 0.0 W/m2 CLR
11:40 78.8 °F 60.3 °F 29.97 in NE 2.0 mph 6.0 mph 53% 0.00 in 0.0 W/m2 CLR
11:45 78.8 °F 60.7 °F 29.97 in NNE 1.0 mph 6.0 mph 54% 0.00 in 0.0 W/m2 CLR
11:50 78.7 °F 60.6 °F 29.97 in North 1.0 mph 7.0 mph 54% 0.00 in 0.0 W/m2 CLR
11:55 79.4 °F 61.8 °F 29.97 in NNE 1.0 mph 7.0 mph 55% 0.00 in 0.0 W/m2 CLR
12:00 79.9 °F 61.2 °F 29.97 in NE 1.0 mph 4.0 mph 53% 0.00 in 0.0 W/m2 CLR
12:10 80.3 °F 62.1 °F 29.97 in West 1.0 mph 3.0 mph 54% 0.00 in 0.0 W/m2 CLR
12:15 80.0 °F 60.8 °F 29.97 in West 2.0 mph 5.0 mph 52% 0.00 in 0.0 W/m2 CLR
12:20 80.1 °F 61.4 °F 29.96 in WNW 2.0 mph 5.0 mph 53% 0.00 in 0.0 W/m2 CLR
12:30 80.1 °F 61.4 °F 29.96 in WNW 2.0 mph 4.0 mph 53% 0.00 in 0.0 W/m2 CLR
12:40 80.6 °F 60.2 °F 29.96 in Calm   6.0 mph 50% 0.00 in 0.0 W/m2 CLR
12:45 80.8 °F 59.9 °F 29.96 in North 2.0 mph 6.0 mph 49% 0.00 in 0.0 W/m2 CLR
12:50 81.0 °F 60.6 °F 29.96 in NW 2.0 mph 7.0 mph 50% 0.00 in 0.0 W/m2 CLR
12:55 80.8 °F 59.9 °F 29.96 in NW 1.0 mph 7.0 mph 49% 0.00 in 0.0 W/m2 CLR
13:00 80.6 °F 60.8 °F 29.96 in NW 2.0 mph 4.0 mph 51% 0.00 in 0.0 W/m2 CLR
13:10 81.1 °F 60.1 °F 29.95 in NE 3.0 mph 5.0 mph 49% 0.00 in 0.0 W/m2 CLR
13:15 80.7 °F 59.2 °F 29.95 in ENE 6.0 mph 10.0 mph 48% 0.00 in 0.0 W/m2 CLR
13:20 80.7 °F 59.8 °F 29.94 in NE 2.0 mph 10.0 mph 49% 0.00 in 0.0 W/m2 CLR
13:30 81.1 °F 60.7 °F 29.94 in NNE 2.0 mph 4.0 mph 50% 0.00 in 0.0 W/m2 CLR
13:40 81.4 °F 59.8 °F 29.94 in NE 1.0 mph 4.0 mph 48% 0.00 in 0.0 W/m2 CLR
13:45 81.7 °F 59.5 °F 29.93 in North 3.0 mph 6.0 mph 47% 0.00 in 0.0 W/m2 CLR
13:50 81.8 °F 59.6 °F 29.93 in NNW 2.0 mph 7.0 mph 47% 0.00 in 0.0 W/m2 CLR
13:55 81.6 °F 60.0 °F 29.93 in NW 1.0 mph 3.0 mph 48% 0.00 in 0.0 W/m2 CLR
14:00 82.1 °F 59.9 °F 29.93 in NNW 2.0 mph 6.0 mph 47% 0.00 in 0.0 W/m2 CLR
14:10 82.8 °F 61.7 °F 29.92 in NE 1.0 mph 3.0 mph 49% 0.00 in 0.0 W/m2 CLR
14:15 82.6 °F 60.3 °F 29.92 in ENE 2.0 mph 6.0 mph 47% 0.00 in 0.0 W/m2 CLR
14:20 82.8 °F 59.9 °F 29.92 in NE 3.0 mph 8.0 mph 46% 0.00 in 0.0 W/m2 CLR
14:25 82.5 °F 59.0 °F 29.92 in NE 6.0 mph 8.0 mph 45% 0.00 in 0.0 W/m2 CLR
14:30 82.4 °F 59.5 °F 29.91 in North 3.0 mph 6.0 mph 46% 0.00 in 0.0 W/m2 CLR
14:40 82.5 °F 59.0 °F 29.91 in NNE 6.0 mph 10.0 mph 45% 0.00 in 0.0 W/m2 CLR
14:45 82.7 °F 59.8 °F 29.91 in NNE 3.0 mph 8.0 mph 46% 0.00 in 0.0 W/m2 CLR
14:55 82.8 °F 59.3 °F 29.91 in NE 5.0 mph 7.0 mph 45% 0.00 in 0.0 W/m2 CLR
15:00 82.8 °F 60.5 °F 29.91 in NE 3.0 mph 7.0 mph 47% 0.00 in 0.0 W/m2 CLR
15:10 82.5 °F 59.7 °F 29.90 in NE 3.0 mph 7.0 mph 46% 0.00 in 0.0 W/m2 CLR
15:15 82.7 °F 60.4 °F 29.90 in ENE 2.0 mph 6.0 mph 47% 0.00 in 0.0 W/m2 CLR
15:20 82.7 °F 58.6 °F 29.90 in NNE 3.0 mph 7.0 mph 44% 0.00 in 0.0 W/m2 CLR
15:30 83.7 °F 60.7 °F 29.90 in North 1.0 mph 5.0 mph 46% 0.00 in 0.0 W/m2 CLR
15:40 82.8 °F 61.1 °F 29.90 in WNW 2.0 mph 7.0 mph 48% 0.00 in 0.0 W/m2 CLR
15:45 83.3 °F 60.3 °F 29.90 in NNE 3.0 mph 7.0 mph 46% 0.00 in 0.0 W/m2 CLR
15:50 83.2 °F 60.2 °F 29.90 in North 2.0 mph 6.0 mph 46% 0.00 in 0.0 W/m2 CLR
15:55 83.1 °F 60.2 °F 29.90 in NNW 3.0 mph 7.0 mph 46% 0.00 in 0.0 W/m2 CLR
16:00 83.4 °F 60.4 °F 29.90 in North 2.0 mph 6.0 mph 46% 0.00 in 0.0 W/m2 CLR
16:10 83.6 °F 59.4 °F 29.89 in NNE 3.0 mph 7.0 mph 44% 0.00 in 0.0 W/m2 CLR
16:15 83.4 °F 60.5 °F 29.89 in NNE 1.0 mph 5.0 mph 46% 0.00 in 0.0 W/m2 CLR
16:20 83.6 °F 60.0 °F 29.89 in NNW 2.0 mph 6.0 mph 45% 0.00 in 0.0 W/m2 CLR
16:25 83.1 °F 60.2 °F 29.89 in WNW 2.0 mph 6.0 mph 46% 0.00 in 0.0 W/m2 CLR
16:30 83.3 °F 62.7 °F 29.90 in NNE 5.0 mph 12.0 mph 50% 0.00 in 0.0 W/m2 CLR
16:40 81.4 °F 64.2 °F 29.90 in ENE 8.0 mph 14.0 mph 56% 0.00 in 0.0 W/m2 CLR
16:45 81.0 °F 64.8 °F 29.90 in ENE 3.0 mph 10.0 mph 58% 0.00 in 0.0 W/m2 CLR
16:50 81.2 °F 65.1 °F 29.90 in ENE 5.0 mph 12.0 mph 58% 0.00 in 0.0 W/m2 CLR
16:55 80.5 °F 64.9 °F 29.90 in ENE 6.0 mph 12.0 mph 59% 0.00 in 0.0 W/m2 CLR
17:00 80.4 °F 64.8 °F 29.90 in ENE 8.0 mph 12.0 mph 59% 0.00 in 0.0 W/m2 CLR
17:10 79.6 °F 65.0 °F 29.90 in ENE 6.0 mph 10.0 mph 61% 0.00 in 0.0 W/m2 CLR
17:15 79.4 °F 64.8 °F 29.90 in ENE 3.0 mph 13.0 mph 61% 0.00 in 0.0 W/m2 CLR
17:25 78.9 °F 64.3 °F 29.91 in ENE 5.0 mph 13.0 mph 61% 0.00 in 0.0 W/m2 CLR
17:30 78.9 °F 64.3 °F 29.91 in ENE 6.0 mph 10.0 mph 61% 0.00 in 0.0 W/m2 CLR
17:40 78.5 °F 64.4 °F 29.92 in ENE 7.0 mph 20.0 mph 62% 0.00 in 0.0 W/m2 CLR
17:45 78.1 °F 64.0 °F 29.92 in NE 7.0 mph 14.0 mph 62% 0.00 in 0.0 W/m2 CLR
17:50 77.8 °F 64.2 °F 29.92 in NE 5.0 mph 10.0 mph 63% 0.00 in 0.0 W/m2 CLR
18:00 77.3 °F 64.2 °F 29.92 in NE 7.0 mph 14.0 mph 64% 0.00 in 0.0 W/m2 CLR
18:10 76.3 °F 63.2 °F 29.92 in NE 6.0 mph 14.0 mph 64% 0.00 in 0.0 W/m2 CLR
18:15 76.0 °F 63.4 °F 29.92 in ENE 5.0 mph 10.0 mph 65% 0.00 in 0.0 W/m2 CLR
18:25 75.3 °F 62.8 °F 29.93 in ENE 7.0 mph 12.0 mph 65% 0.00 in 0.0 W/m2 CLR
18:30 75.1 °F 63.4 °F 29.93 in ENE 3.0 mph 12.0 mph 67% 0.00 in 0.0 W/m2 CLR
18:40 74.4 °F 62.8 °F 29.93 in NE 7.0 mph 12.0 mph 67% 0.00 in 0.0 W/m2 CLR
18:45 74.1 °F 62.9 °F 29.93 in NE 5.0 mph 12.0 mph 68% 0.00 in 0.0 W/m2 CLR
18:55 73.5 °F 62.7 °F 29.94 in ENE 7.0 mph 10.0 mph 69% 0.00 in 0.0 W/m2 CLR
19:00 73.2 °F 62.9 °F 29.94 in ENE 7.0 mph 13.0 mph 70% 0.00 in 0.0 W/m2 CLR
19:10 72.8 °F 62.8 °F 29.94 in ENE 5.0 mph 7.0 mph 71% 0.00 in 0.0 W/m2 CLR
19:15 72.6 °F 62.7 °F 29.95 in NE 3.0 mph 10.0 mph 71% 0.00 in 0.0 W/m2 CLR
19:20 72.4 °F 62.4 °F 29.95 in NE 5.0 mph 12.0 mph 71% 0.00 in 0.0 W/m2 CLR
19:30 71.8 °F 61.9 °F 29.95 in ENE 5.0 mph 12.0 mph 71% 0.00 in 0.0 W/m2 CLR
19:40 71.4 °F 61.9 °F 29.96 in NE 6.0 mph 12.0 mph 72% 0.00 in 0.0 W/m2 CLR
19:45 71.2 °F 61.3 °F 29.96 in NE 5.0 mph 10.0 mph 71% 0.00 in 0.0 W/m2 CLR
19:50 71.1 °F 61.6 °F 29.96 in NE 6.0 mph 15.0 mph 72% 0.00 in 0.0 W/m2 CLR
20:00 70.8 °F 61.4 °F 29.96 in NE 3.0 mph 8.0 mph 72% 0.00 in 0.0 W/m2 CLR
20:10 70.5 °F 61.4 °F 29.96 in NE 7.0 mph 12.0 mph 73% 0.00 in 0.0 W/m2 CLR
20:15 70.3 °F 61.2 °F 29.96 in NE 2.0 mph 7.0 mph 73% 0.00 in 0.0 W/m2 CLR
20:25 69.9 °F 61.2 °F 29.97 in NE 1.0 mph 5.0 mph 74% 0.00 in 0.0 W/m2 CLR
20:30 69.7 °F 61.0 °F 29.97 in NE 3.0 mph 6.0 mph 74% 0.00 in 0.0 W/m2 CLR
Lake Mary, FL, USA
Compliments of Weather Underground